sensor_id;sensor_type;location;lat;lon;timestamp;P1;durP1;ratioP1;P2;durP2;ratioP2
22201;SDS011;11266;51.522;6.302;2022-08-20T04:54:43;5.90;;;4.18;;
22201;SDS011;11266;51.522;6.302;2022-08-20T04:55:32;4.95;;;3.55;;
22201;SDS011;11266;51.522;6.302;2022-08-20T04:56:19;5.50;;;3.75;;
22201;SDS011;11266;51.522;6.302;2022-08-20T04:57:07;6.50;;;4.25;;
22201;SDS011;11266;51.522;6.302;2022-08-20T04:57:53;5.22;;;3.97;;
22201;SDS011;11266;51.522;6.302;2022-08-20T04:58:40;5.78;;;4.00;;
22201;SDS011;11266;51.522;6.302;2022-08-20T04:59:31;4.65;;;3.63;;
22201;SDS011;11266;51.522;6.302;2022-08-20T05:00:18;6.50;;;3.95;;
22201;SDS011;11266;51.522;6.302;2022-08-20T05:01:05;5.57;;;4.20;;
22201;SDS011;11266;51.522;6.302;2022-08-20T05:01:51;6.90;;;4.35;;
22201;SDS011;11266;51.522;6.302;2022-08-20T05:02:37;4.78;;;4.10;;
22201;SDS011;11266;51.522;6.302;2022-08-20T05:03:24;6.95;;;4.32;;
22201;SDS011;11266;51.522;6.302;2022-08-20T05:04:10;6.20;;;3.75;;
22201;SDS011;11266;51.522;6.302;2022-08-20T05:04:56;5.10;;;3.80;;
22201;SDS011;11266;51.522;6.302;2022-08-20T05:05:42;4.80;;;3.60;;
22201;SDS011;11266;51.522;6.302;2022-08-20T05:06:31;5.85;;;4.20;;
22201;SDS011;11266;51.522;6.302;2022-08-20T05:07:17;5.15;;;3.90;;
22201;SDS011;11266;51.522;6.302;2022-08-20T05:08:04;4.68;;;3.80;;
22201;SDS011;11266;51.522;6.302;2022-08-20T05:08:51;4.97;;;3.58;;
22201;SDS011;11266;51.522;6.302;2022-08-20T05:09:37;5.07;;;3.90;;
22201;SDS011;11266;51.522;6.302;2022-08-20T05:10:23;5.85;;;3.85;;
22201;SDS011;11266;51.522;6.302;2022-08-20T05:11:10;6.72;;;4.10;;
22201;SDS011;11266;51.522;6.302;2022-08-20T05:11:58;6.80;;;4.40;;
22201;SDS011;11266;51.522;6.302;2022-08-20T05:12:44;5.95;;;4.15;;
22201;SDS011;11266;51.522;6.302;2022-08-20T05:13:30;6.13;;;4.05;;
22201;SDS011;11266;51.522;6.302;2022-08-20T05:14:16;5.83;;;4.17;;
22201;SDS011;11266;51.522;6.302;2022-08-20T05:15:03;6.55;;;4.30;;
22201;SDS011;11266;51.522;6.302;2022-08-20T05:15:49;4.93;;;3.63;;
22201;SDS011;11266;51.522;6.302;2022-08-20T05:16:36;6.30;;;3.90;;
22201;SDS011;11266;51.522;6.302;2022-08-20T05:17:22;6.18;;;3.75;;
22201;SDS011;11266;51.522;6.302;2022-08-20T05:18:08;6.93;;;4.00;;
22201;SDS011;11266;51.522;6.302;2022-08-20T05:18:54;3.83;;;3.25;;
22201;SDS011;11266;51.522;6.302;2022-08-20T05:19:40;4.72;;;3.70;;
22201;SDS011;11266;51.522;6.302;2022-08-20T05:20:27;5.30;;;3.70;;
22201;SDS011;11266;51.522;6.302;2022-08-20T05:21:15;5.68;;;3.60;;
22201;SDS011;11266;51.522;6.302;2022-08-20T05:22:01;4.47;;;3.47;;
22201;SDS011;11266;51.522;6.302;2022-08-20T05:22:47;4.45;;;3.20;;
22201;SDS011;11266;51.522;6.302;2022-08-20T05:23:36;5.13;;;3.20;;
22201;SDS011;11266;51.522;6.302;2022-08-20T05:24:26;4.30;;;3.20;;
22201;SDS011;11266;51.522;6.302;2022-08-20T05:25:13;4.50;;;3.17;;
22201;SDS011;11266;51.522;6.302;2022-08-20T05:25:59;6.57;;;3.97;;
22201;SDS011;11266;51.522;6.302;2022-08-20T05:26:45;5.90;;;3.90;;
22201;SDS011;11266;51.522;6.302;2022-08-20T05:27:31;5.47;;;3.80;;
22201;SDS011;11266;51.522;6.302;2022-08-20T05:28:19;6.22;;;4.30;;
22201;SDS011;11266;51.522;6.302;2022-08-20T05:29:06;5.70;;;4.00;;
22201;SDS011;11266;51.522;6.302;2022-08-20T05:29:52;5.93;;;4.20;;
22201;SDS011;11266;51.522;6.302;2022-08-20T05:30:43;6.13;;;4.38;;
22201;SDS011;11266;51.522;6.302;2022-08-20T05:31:30;5.15;;;3.60;;
22201;SDS011;11266;51.522;6.302;2022-08-20T05:32:17;6.53;;;3.92;;
22201;SDS011;11266;51.522;6.302;2022-08-20T05:33:04;6.05;;;3.92;;
22201;SDS011;11266;51.522;6.302;2022-08-20T05:33:50;6.63;;;4.00;;
22201;SDS011;11266;51.522;6.302;2022-08-20T05:34:37;5.07;;;3.78;;
22201;SDS011;11266;51.522;6.302;2022-08-20T05:35:23;5.40;;;3.88;;
22201;SDS011;11266;51.522;6.302;2022-08-20T05:36:09;5.38;;;3.85;;
22201;SDS011;11266;51.522;6.302;2022-08-20T05:36:55;6.75;;;4.07;;
22201;SDS011;11266;51.522;6.302;2022-08-20T05:37:41;4.75;;;3.50;;
22201;SDS011;11266;51.522;6.302;2022-08-20T05:38:27;5.70;;;4.03;;
22201;SDS011;11266;51.522;6.302;2022-08-20T05:39:13;8.80;;;4.50;;
22201;SDS011;11266;51.522;6.302;2022-08-20T05:39:59;5.40;;;3.75;;
22201;SDS011;11266;51.522;6.302;2022-08-20T05:40:46;6.55;;;4.13;;
22201;SDS011;11266;51.522;6.302;2022-08-20T05:41:32;6.18;;;4.20;;
22201;SDS011;11266;51.522;6.302;2022-08-20T05:42:18;6.38;;;4.10;;
22201;SDS011;11266;51.522;6.302;2022-08-20T05:43:04;7.55;;;3.80;;
22201;SDS011;11266;51.522;6.302;2022-08-20T05:43:50;5.45;;;4.20;;
22201;SDS011;11266;51.522;6.302;2022-08-20T05:44:37;5.43;;;4.07;;
22201;SDS011;11266;51.522;6.302;2022-08-20T05:45:23;7.32;;;4.03;;
22201;SDS011;11266;51.522;6.302;2022-08-20T05:46:11;7.03;;;4.30;;
22201;SDS011;11266;51.522;6.302;2022-08-20T05:47:00;6.57;;;4.07;;
22201;SDS011;11266;51.522;6.302;2022-08-20T05:47:48;5.70;;;4.20;;
22201;SDS011;11266;51.522;6.302;2022-08-20T05:48:34;6.30;;;4.17;;
22201;SDS011;11266;51.522;6.302;2022-08-20T05:49:20;7.90;;;4.80;;
22201;SDS011;11266;51.522;6.302;2022-08-20T05:50:06;7.03;;;3.50;;
22201;SDS011;11266;51.522;6.302;2022-08-20T05:50:53;5.30;;;4.05;;
22201;SDS011;11266;51.522;6.302;2022-08-20T05:51:40;6.95;;;4.38;;
22201;SDS011;11266;51.522;6.302;2022-08-20T05:52:26;5.57;;;4.45;;
22201;SDS011;11266;51.522;6.302;2022-08-20T05:53:14;7.67;;;4.10;;
22201;SDS011;11266;51.522;6.302;2022-08-20T05:54:00;5.50;;;4.10;;
22201;SDS011;11266;51.522;6.302;2022-08-20T05:54:47;5.28;;;3.95;;
22201;SDS011;11266;51.522;6.302;2022-08-20T05:55:33;5.28;;;3.80;;
22201;SDS011;11266;51.522;6.302;2022-08-20T05:56:21;4.65;;;3.65;;
22201;SDS011;11266;51.522;6.302;2022-08-20T05:57:07;4.53;;;3.42;;
22201;SDS011;11266;51.522;6.302;2022-08-20T05:58:00;7.50;;;3.78;;
22201;SDS011;11266;51.522;6.302;2022-08-20T05:58:46;5.30;;;3.75;;
22201;SDS011;11266;51.522;6.302;2022-08-20T05:59:32;4.53;;;3.30;;
22201;SDS011;11266;51.522;6.302;2022-08-20T06:00:20;4.55;;;3.30;;
22201;SDS011;11266;51.522;6.302;2022-08-20T06:01:06;5.53;;;3.90;;
22201;SDS011;11266;51.522;6.302;2022-08-20T06:01:52;5.93;;;4.38;;
22201;SDS011;11266;51.522;6.302;2022-08-20T06:02:38;6.15;;;4.07;;
22201;SDS011;11266;51.522;6.302;2022-08-20T06:03:43;5.75;;;4.57;;
22201;SDS011;11266;51.522;6.302;2022-08-20T06:04:47;6.93;;;4.63;;
22201;SDS011;11266;51.522;6.302;2022-08-20T06:05:33;5.63;;;4.28;;
22201;SDS011;11266;51.522;6.302;2022-08-20T06:06:19;5.45;;;4.03;;
22201;SDS011;11266;51.522;6.302;2022-08-20T06:07:07;6.88;;;5.00;;
22201;SDS011;11266;51.522;6.302;2022-08-20T06:07:53;5.82;;;5.00;;
22201;SDS011;11266;51.522;6.302;2022-08-20T06:08:39;7.97;;;5.50;;
22201;SDS011;11266;51.522;6.302;2022-08-20T06:09:25;6.05;;;4.70;;
22201;SDS011;11266;51.522;6.302;2022-08-20T06:10:12;5.80;;;4.85;;
22201;SDS011;11266;51.522;6.302;2022-08-20T06:10:58;6.10;;;4.30;;
22201;SDS011;11266;51.522;6.302;2022-08-20T06:11:44;7.65;;;4.80;;
22201;SDS011;11266;51.522;6.302;2022-08-20T06:12:30;5.70;;;4.70;;
22201;SDS011;11266;51.522;6.302;2022-08-20T06:13:16;7.07;;;4.97;;
22201;SDS011;11266;51.522;6.302;2022-08-20T06:14:02;7.65;;;4.43;;
22201;SDS011;11266;51.522;6.302;2022-08-20T06:14:48;6.45;;;4.80;;
22201;SDS011;11266;51.522;6.302;2022-08-20T06:15:35;6.20;;;4.72;;
22201;SDS011;11266;51.522;6.302;2022-08-20T06:16:21;6.07;;;4.80;;
22201;SDS011;11266;51.522;6.302;2022-08-20T06:17:08;5.65;;;4.03;;
22201;SDS011;11266;51.522;6.302;2022-08-20T06:17:54;7.85;;;6.05;;
22201;SDS011;11266;51.522;6.302;2022-08-20T06:18:40;9.23;;;7.10;;
22201;SDS011;11266;51.522;6.302;2022-08-20T06:19:27;7.93;;;6.38;;
22201;SDS011;11266;51.522;6.302;2022-08-20T06:20:13;6.28;;;5.57;;
22201;SDS011;11266;51.522;6.302;2022-08-20T06:20:59;6.40;;;5.03;;
22201;SDS011;11266;51.522;6.302;2022-08-20T06:21:45;6.85;;;5.72;;
22201;SDS011;11266;51.522;6.302;2022-08-20T06:22:31;6.13;;;5.20;;
22201;SDS011;11266;51.522;6.302;2022-08-20T06:23:17;7.43;;;5.38;;
22201;SDS011;11266;51.522;6.302;2022-08-20T06:24:03;6.63;;;5.65;;
22201;SDS011;11266;51.522;6.302;2022-08-20T06:24:50;7.25;;;5.60;;
22201;SDS011;11266;51.522;6.302;2022-08-20T06:25:36;7.50;;;5.57;;
22201;SDS011;11266;51.522;6.302;2022-08-20T06:26:25;7.22;;;5.55;;
22201;SDS011;11266;51.522;6.302;2022-08-20T06:27:12;7.88;;;5.88;;
22201;SDS011;11266;51.522;6.302;2022-08-20T06:27:59;7.93;;;5.75;;
22201;SDS011;11266;51.522;6.302;2022-08-20T06:28:47;6.88;;;5.70;;
22201;SDS011;11266;51.522;6.302;2022-08-20T06:29:34;7.75;;;6.20;;
22201;SDS011;11266;51.522;6.302;2022-08-20T06:30:20;6.95;;;5.60;;
22201;SDS011;11266;51.522;6.302;2022-08-20T06:31:07;7.55;;;6.25;;
22201;SDS011;11266;51.522;6.302;2022-08-20T06:31:53;8.13;;;5.70;;
22201;SDS011;11266;51.522;6.302;2022-08-20T06:32:39;14.45;;;9.45;;
22201;SDS011;11266;51.522;6.302;2022-08-20T06:33:26;9.48;;;7.00;;
22201;SDS011;11266;51.522;6.302;2022-08-20T06:34:12;8.98;;;6.35;;
22201;SDS011;11266;51.522;6.302;2022-08-20T06:34:59;8.02;;;5.95;;
22201;SDS011;11266;51.522;6.302;2022-08-20T06:35:46;10.65;;;6.93;;
22201;SDS011;11266;51.522;6.302;2022-08-20T06:36:32;8.90;;;7.15;;
22201;SDS011;11266;51.522;6.302;2022-08-20T06:37:20;10.23;;;7.18;;
22201;SDS011;11266;51.522;6.302;2022-08-20T06:38:08;8.55;;;6.45;;
22201;SDS011;11266;51.522;6.302;2022-08-20T06:38:55;10.18;;;7.10;;
22201;SDS011;11266;51.522;6.302;2022-08-20T06:39:42;9.57;;;6.90;;
22201;SDS011;11266;51.522;6.302;2022-08-20T06:40:30;9.77;;;7.07;;
22201;SDS011;11266;51.522;6.302;2022-08-20T06:41:18;8.75;;;6.88;;
22201;SDS011;11266;51.522;6.302;2022-08-20T06:42:04;12.65;;;7.43;;
22201;SDS011;11266;51.522;6.302;2022-08-20T06:42:50;9.73;;;7.25;;
22201;SDS011;11266;51.522;6.302;2022-08-20T06:43:36;10.02;;;7.32;;
22201;SDS011;11266;51.522;6.302;2022-08-20T06:44:22;9.38;;;7.30;;
22201;SDS011;11266;51.522;6.302;2022-08-20T06:45:09;9.90;;;7.65;;
22201;SDS011;11266;51.522;6.302;2022-08-20T06:45:57;9.38;;;7.60;;
22201;SDS011;11266;51.522;6.302;2022-08-20T06:46:44;11.70;;;8.63;;
22201;SDS011;11266;51.522;6.302;2022-08-20T06:47:30;11.27;;;7.88;;
22201;SDS011;11266;51.522;6.302;2022-08-20T06:48:16;13.27;;;9.05;;
22201;SDS011;11266;51.522;6.302;2022-08-20T06:49:03;15.02;;;10.45;;
22201;SDS011;11266;51.522;6.302;2022-08-20T06:49:49;13.27;;;8.93;;
22201;SDS011;11266;51.522;6.302;2022-08-20T06:50:37;12.73;;;8.98;;
22201;SDS011;11266;51.522;6.302;2022-08-20T06:51:26;11.45;;;8.93;;
22201;SDS011;11266;51.522;6.302;2022-08-20T06:52:13;13.20;;;8.75;;
22201;SDS011;11266;51.522;6.302;2022-08-20T06:53:02;18.00;;;12.35;;
22201;SDS011;11266;51.522;6.302;2022-08-20T06:53:48;15.82;;;11.18;;
22201;SDS011;11266;51.522;6.302;2022-08-20T06:54:34;20.83;;;12.95;;
22201;SDS011;11266;51.522;6.302;2022-08-20T06:55:20;25.10;;;14.00;;
22201;SDS011;11266;51.522;6.302;2022-08-20T06:56:06;15.65;;;12.25;;
22201;SDS011;11266;51.522;6.302;2022-08-20T06:56:53;16.27;;;12.55;;
22201;SDS011;11266;51.522;6.302;2022-08-20T06:57:40;15.25;;;12.55;;
22201;SDS011;11266;51.522;6.302;2022-08-20T06:58:27;18.23;;;11.68;;
22201;SDS011;11266;51.522;6.302;2022-08-20T06:59:16;17.95;;;13.85;;
22201;SDS011;11266;51.522;6.302;2022-08-20T07:00:06;27.05;;;13.20;;
22201;SDS011;11266;51.522;6.302;2022-08-20T07:00:53;16.98;;;13.15;;
22201;SDS011;11266;51.522;6.302;2022-08-20T07:01:39;20.17;;;13.02;;
22201;SDS011;11266;51.522;6.302;2022-08-20T07:02:25;17.75;;;13.15;;
22201;SDS011;11266;51.522;6.302;2022-08-20T07:03:11;17.45;;;13.38;;
22201;SDS011;11266;51.522;6.302;2022-08-20T07:04:00;18.13;;;13.73;;
22201;SDS011;11266;51.522;6.302;2022-08-20T07:04:46;22.13;;;14.27;;
22201;SDS011;11266;51.522;6.302;2022-08-20T07:05:33;19.27;;;14.18;;
22201;SDS011;11266;51.522;6.302;2022-08-20T07:06:20;23.38;;;15.80;;
22201;SDS011;11266;51.522;6.302;2022-08-20T07:07:05;17.65;;;14.32;;
22201;SDS011;11266;51.522;6.302;2022-08-20T07:07:59;20.27;;;14.70;;
22201;SDS011;11266;51.522;6.302;2022-08-20T07:08:45;21.70;;;16.17;;
22201;SDS011;11266;51.522;6.302;2022-08-20T07:09:31;24.05;;;15.48;;
22201;SDS011;11266;51.522;6.302;2022-08-20T07:10:18;26.27;;;17.08;;
22201;SDS011;11266;51.522;6.302;2022-08-20T07:11:05;20.17;;;15.93;;
22201;SDS011;11266;51.522;6.302;2022-08-20T07:11:51;20.92;;;15.45;;
22201;SDS011;11266;51.522;6.302;2022-08-20T07:12:37;23.05;;;18.63;;
22201;SDS011;11266;51.522;6.302;2022-08-20T07:13:23;23.60;;;16.88;;
22201;SDS011;11266;51.522;6.302;2022-08-20T07:14:09;21.90;;;17.05;;
22201;SDS011;11266;51.522;6.302;2022-08-20T07:14:55;22.73;;;15.98;;
22201;SDS011;11266;51.522;6.302;2022-08-20T07:15:42;19.80;;;16.13;;
22201;SDS011;11266;51.522;6.302;2022-08-20T07:16:28;25.27;;;17.58;;
22201;SDS011;11266;51.522;6.302;2022-08-20T07:17:14;20.05;;;16.40;;
22201;SDS011;11266;51.522;6.302;2022-08-20T07:18:01;22.45;;;17.35;;
22201;SDS011;11266;51.522;6.302;2022-08-20T07:18:48;27.98;;;18.70;;
22201;SDS011;11266;51.522;6.302;2022-08-20T07:19:35;24.55;;;17.92;;
22201;SDS011;11266;51.522;6.302;2022-08-20T07:20:21;23.20;;;17.17;;
22201;SDS011;11266;51.522;6.302;2022-08-20T07:21:07;24.98;;;18.92;;
22201;SDS011;11266;51.522;6.302;2022-08-20T07:21:53;23.52;;;17.65;;
22201;SDS011;11266;51.522;6.302;2022-08-20T07:22:39;24.35;;;19.27;;
22201;SDS011;11266;51.522;6.302;2022-08-20T07:23:27;24.50;;;19.17;;
22201;SDS011;11266;51.522;6.302;2022-08-20T07:24:15;25.63;;;19.50;;
22201;SDS011;11266;51.522;6.302;2022-08-20T07:25:02;27.05;;;19.75;;
22201;SDS011;11266;51.522;6.302;2022-08-20T07:25:48;25.05;;;19.38;;
22201;SDS011;11266;51.522;6.302;2022-08-20T07:26:35;26.70;;;20.15;;
22201;SDS011;11266;51.522;6.302;2022-08-20T07:27:23;24.25;;;18.55;;
22201;SDS011;11266;51.522;6.302;2022-08-20T07:28:20;24.38;;;18.50;;
22201;SDS011;11266;51.522;6.302;2022-08-20T07:29:06;27.33;;;22.73;;
22201;SDS011;11266;51.522;6.302;2022-08-20T07:29:52;27.85;;;20.55;;
22201;SDS011;11266;51.522;6.302;2022-08-20T07:30:57;23.60;;;19.13;;
22201;SDS011;11266;51.522;6.302;2022-08-20T07:32:02;25.20;;;19.58;;
22201;SDS011;11266;51.522;6.302;2022-08-20T07:33:06;29.17;;;20.05;;
22201;SDS011;11266;51.522;6.302;2022-08-20T07:33:53;29.23;;;21.25;;
22201;SDS011;11266;51.522;6.302;2022-08-20T07:34:39;26.70;;;20.58;;
22201;SDS011;11266;51.522;6.302;2022-08-20T07:35:26;28.33;;;21.40;;
22201;SDS011;11266;51.522;6.302;2022-08-20T07:36:12;26.20;;;21.40;;
22201;SDS011;11266;51.522;6.302;2022-08-20T07:36:58;31.88;;;22.27;;
22201;SDS011;11266;51.522;6.302;2022-08-20T07:37:46;28.52;;;22.55;;
22201;SDS011;11266;51.522;6.302;2022-08-20T07:38:32;27.45;;;21.55;;
22201;SDS011;11266;51.522;6.302;2022-08-20T07:39:18;25.50;;;21.02;;
22201;SDS011;11266;51.522;6.302;2022-08-20T07:40:05;25.73;;;21.20;;
22201;SDS011;11266;51.522;6.302;2022-08-20T07:40:52;30.30;;;21.77;;
22201;SDS011;11266;51.522;6.302;2022-08-20T07:41:38;29.23;;;21.73;;
22201;SDS011;11266;51.522;6.302;2022-08-20T07:42:24;27.77;;;21.17;;
22201;SDS011;11266;51.522;6.302;2022-08-20T07:43:10;24.75;;;21.10;;
22201;SDS011;11266;51.522;6.302;2022-08-20T07:44:00;27.45;;;20.35;;
22201;SDS011;11266;51.522;6.302;2022-08-20T07:44:46;25.63;;;20.05;;
22201;SDS011;11266;51.522;6.302;2022-08-20T07:45:32;27.30;;;21.45;;
22201;SDS011;11266;51.522;6.302;2022-08-20T07:46:20;26.70;;;21.38;;
22201;SDS011;11266;51.522;6.302;2022-08-20T07:47:06;24.13;;;20.35;;
22201;SDS011;11266;51.522;6.302;2022-08-20T07:47:52;24.80;;;21.00;;
22201;SDS011;11266;51.522;6.302;2022-08-20T07:48:40;23.20;;;19.42;;
22201;SDS011;11266;51.522;6.302;2022-08-20T07:49:30;29.52;;;21.02;;
22201;SDS011;11266;51.522;6.302;2022-08-20T07:50:17;26.73;;;21.27;;
22201;SDS011;11266;51.522;6.302;2022-08-20T07:51:04;29.90;;;21.83;;
22201;SDS011;11266;51.522;6.302;2022-08-20T07:51:50;29.70;;;21.55;;
22201;SDS011;11266;51.522;6.302;2022-08-20T07:52:36;24.55;;;20.33;;
22201;SDS011;11266;51.522;6.302;2022-08-20T07:53:22;25.40;;;20.77;;
22201;SDS011;11266;51.522;6.302;2022-08-20T07:54:08;24.85;;;21.05;;
22201;SDS011;11266;51.522;6.302;2022-08-20T07:54:54;23.40;;;19.83;;
22201;SDS011;11266;51.522;6.302;2022-08-20T07:55:41;23.67;;;19.05;;
22201;SDS011;11266;51.522;6.302;2022-08-20T07:56:27;26.35;;;21.08;;
22201;SDS011;11266;51.522;6.302;2022-08-20T07:57:13;29.88;;;20.92;;
22201;SDS011;11266;51.522;6.302;2022-08-20T07:58:09;28.27;;;21.83;;
22201;SDS011;11266;51.522;6.302;2022-08-20T07:58:55;35.85;;;21.77;;
22201;SDS011;11266;51.522;6.302;2022-08-20T07:59:43;28.30;;;21.05;;
22201;SDS011;11266;51.522;6.302;2022-08-20T08:00:30;28.02;;;20.75;;
22201;SDS011;11266;51.522;6.302;2022-08-20T08:01:17;24.25;;;19.85;;
22201;SDS011;11266;51.522;6.302;2022-08-20T08:02:04;26.13;;;19.75;;
22201;SDS011;11266;51.522;6.302;2022-08-20T08:02:50;28.73;;;21.30;;
22201;SDS011;11266;51.522;6.302;2022-08-20T08:03:36;25.67;;;20.55;;
22201;SDS011;11266;51.522;6.302;2022-08-20T08:04:23;22.38;;;19.30;;
22201;SDS011;11266;51.522;6.302;2022-08-20T08:05:12;23.75;;;19.17;;
22201;SDS011;11266;51.522;6.302;2022-08-20T08:05:58;26.92;;;19.42;;
22201;SDS011;11266;51.522;6.302;2022-08-20T08:06:44;26.58;;;19.98;;
22201;SDS011;11266;51.522;6.302;2022-08-20T08:07:31;26.15;;;20.40;;
22201;SDS011;11266;51.522;6.302;2022-08-20T08:08:21;26.58;;;20.27;;
22201;SDS011;11266;51.522;6.302;2022-08-20T08:09:12;26.98;;;20.27;;
22201;SDS011;11266;51.522;6.302;2022-08-20T08:09:58;22.92;;;18.63;;
22201;SDS011;11266;51.522;6.302;2022-08-20T08:10:45;26.75;;;19.83;;
22201;SDS011;11266;51.522;6.302;2022-08-20T08:11:32;21.50;;;17.92;;
22201;SDS011;11266;51.522;6.302;2022-08-20T08:12:19;24.52;;;17.30;;
22201;SDS011;11266;51.522;6.302;2022-08-20T08:13:06;26.08;;;18.45;;
22201;SDS011;11266;51.522;6.302;2022-08-20T08:13:53;30.70;;;20.27;;
22201;SDS011;11266;51.522;6.302;2022-08-20T08:14:43;21.75;;;17.40;;
22201;SDS011;11266;51.522;6.302;2022-08-20T08:15:30;27.58;;;18.27;;
22201;SDS011;11266;51.522;6.302;2022-08-20T08:16:17;26.02;;;18.65;;
22201;SDS011;11266;51.522;6.302;2022-08-20T08:17:04;21.17;;;17.67;;
22201;SDS011;11266;51.522;6.302;2022-08-20T08:17:51;22.90;;;18.00;;
22201;SDS011;11266;51.522;6.302;2022-08-20T08:18:41;21.20;;;16.88;;
22201;SDS011;11266;51.522;6.302;2022-08-20T08:19:34;21.95;;;16.92;;
22201;SDS011;11266;51.522;6.302;2022-08-20T08:20:22;24.60;;;16.80;;
22201;SDS011;11266;51.522;6.302;2022-08-20T08:21:08;26.00;;;18.30;;
22201;SDS011;11266;51.522;6.302;2022-08-20T08:21:56;21.15;;;16.33;;
22201;SDS011;11266;51.522;6.302;2022-08-20T08:22:45;24.13;;;17.05;;
22201;SDS011;11266;51.522;6.302;2022-08-20T08:23:34;23.88;;;17.48;;
22201;SDS011;11266;51.522;6.302;2022-08-20T08:24:20;25.83;;;16.85;;
22201;SDS011;11266;51.522;6.302;2022-08-20T08:25:06;22.35;;;17.38;;
22201;SDS011;11266;51.522;6.302;2022-08-20T08:25:52;21.98;;;16.75;;
22201;SDS011;11266;51.522;6.302;2022-08-20T08:26:39;22.90;;;16.85;;
22201;SDS011;11266;51.522;6.302;2022-08-20T08:27:25;25.98;;;17.67;;
22201;SDS011;11266;51.522;6.302;2022-08-20T08:28:11;21.13;;;16.85;;
22201;SDS011;11266;51.522;6.302;2022-08-20T08:28:58;23.60;;;17.38;;
22201;SDS011;11266;51.522;6.302;2022-08-20T08:29:44;22.13;;;16.45;;
22201;SDS011;11266;51.522;6.302;2022-08-20T08:30:30;20.13;;;16.48;;
22201;SDS011;11266;51.522;6.302;2022-08-20T08:31:17;25.15;;;17.52;;
22201;SDS011;11266;51.522;6.302;2022-08-20T08:32:03;24.10;;;16.50;;
22201;SDS011;11266;51.522;6.302;2022-08-20T08:32:49;20.30;;;15.63;;
22201;SDS011;11266;51.522;6.302;2022-08-20T08:33:54;18.73;;;14.65;;
22201;SDS011;11266;51.522;6.302;2022-08-20T08:34:40;22.52;;;16.40;;
22201;SDS011;11266;51.522;6.302;2022-08-20T08:35:31;20.10;;;14.73;;
22201;SDS011;11266;51.522;6.302;2022-08-20T08:36:18;21.88;;;16.45;;
22201;SDS011;11266;51.522;6.302;2022-08-20T08:37:04;20.30;;;14.98;;
22201;SDS011;11266;51.522;6.302;2022-08-20T08:37:50;19.55;;;15.10;;
22201;SDS011;11266;51.522;6.302;2022-08-20T08:38:39;21.73;;;15.43;;
22201;SDS011;11266;51.522;6.302;2022-08-20T08:39:27;17.50;;;14.60;;
22201;SDS011;11266;51.522;6.302;2022-08-20T08:40:13;18.23;;;13.98;;
22201;SDS011;11266;51.522;6.302;2022-08-20T08:41:58;19.83;;;15.02;;
22201;SDS011;11266;51.522;6.302;2022-08-20T08:42:50;20.08;;;14.25;;
22201;SDS011;11266;51.522;6.302;2022-08-20T08:43:39;20.05;;;14.95;;
22201;SDS011;11266;51.522;6.302;2022-08-20T08:44:27;18.92;;;15.30;;
22201;SDS011;11266;51.522;6.302;2022-08-20T08:45:16;22.80;;;15.05;;
22201;SDS011;11266;51.522;6.302;2022-08-20T08:46:05;21.50;;;15.10;;
22201;SDS011;11266;51.522;6.302;2022-08-20T08:46:52;32.17;;;15.45;;
22201;SDS011;11266;51.522;6.302;2022-08-20T08:47:40;20.13;;;15.63;;
22201;SDS011;11266;51.522;6.302;2022-08-20T08:48:31;22.27;;;15.35;;
22201;SDS011;11266;51.522;6.302;2022-08-20T08:49:21;21.27;;;14.70;;
22201;SDS011;11266;51.522;6.302;2022-08-20T08:50:20;21.52;;;15.30;;
22201;SDS011;11266;51.522;6.302;2022-08-20T08:51:06;18.58;;;14.25;;
22201;SDS011;11266;51.522;6.302;2022-08-20T08:52:02;21.05;;;14.95;;
22201;SDS011;11266;51.522;6.302;2022-08-20T08:52:52;21.45;;;15.35;;
22201;SDS011;11266;51.522;6.302;2022-08-20T08:53:45;20.00;;;14.35;;
22201;SDS011;11266;51.522;6.302;2022-08-20T08:54:32;20.35;;;14.57;;
22201;SDS011;11266;51.522;6.302;2022-08-20T08:55:19;18.67;;;13.02;;
22201;SDS011;11266;51.522;6.302;2022-08-20T08:56:06;19.23;;;13.93;;
22201;SDS011;11266;51.522;6.302;2022-08-20T08:56:53;20.55;;;14.73;;
22201;SDS011;11266;51.522;6.302;2022-08-20T08:57:39;20.83;;;14.75;;
22201;SDS011;11266;51.522;6.302;2022-08-20T08:58:25;19.48;;;14.48;;
22201;SDS011;11266;51.522;6.302;2022-08-20T08:59:12;21.48;;;14.57;;
22201;SDS011;11266;51.522;6.302;2022-08-20T08:59:59;19.92;;;13.73;;
22201;SDS011;11266;51.522;6.302;2022-08-20T09:00:46;17.77;;;13.48;;
22201;SDS011;11266;51.522;6.302;2022-08-20T09:01:32;16.50;;;12.35;;
22201;SDS011;11266;51.522;6.302;2022-08-20T09:02:20;17.73;;;13.05;;
22201;SDS011;11266;51.522;6.302;2022-08-20T09:03:10;20.58;;;14.38;;
22201;SDS011;11266;51.522;6.302;2022-08-20T09:03:57;17.50;;;13.43;;
22201;SDS011;11266;51.522;6.302;2022-08-20T09:04:43;20.20;;;14.07;;
22201;SDS011;11266;51.522;6.302;2022-08-20T09:05:44;18.23;;;13.35;;
22201;SDS011;11266;51.522;6.302;2022-08-20T09:06:31;18.77;;;13.60;;
22201;SDS011;11266;51.522;6.302;2022-08-20T09:07:17;16.50;;;12.85;;
22201;SDS011;11266;51.522;6.302;2022-08-20T09:08:03;16.15;;;13.65;;
22201;SDS011;11266;51.522;6.302;2022-08-20T09:09:01;17.35;;;13.60;;
22201;SDS011;11266;51.522;6.302;2022-08-20T09:09:48;16.52;;;13.10;;
22201;SDS011;11266;51.522;6.302;2022-08-20T09:10:34;22.73;;;14.55;;
22201;SDS011;11266;51.522;6.302;2022-08-20T09:11:21;18.98;;;13.98;;
22201;SDS011;11266;51.522;6.302;2022-08-20T09:12:17;20.13;;;14.60;;
22201;SDS011;11266;51.522;6.302;2022-08-20T09:13:06;19.52;;;13.32;;
22201;SDS011;11266;51.522;6.302;2022-08-20T09:13:53;17.30;;;13.15;;
22201;SDS011;11266;51.522;6.302;2022-08-20T09:14:39;19.50;;;14.18;;
22201;SDS011;11266;51.522;6.302;2022-08-20T09:15:25;17.63;;;13.57;;
22201;SDS011;11266;51.522;6.302;2022-08-20T09:16:11;18.00;;;13.45;;
22201;SDS011;11266;51.522;6.302;2022-08-20T09:16:57;20.08;;;14.48;;
22201;SDS011;11266;51.522;6.302;2022-08-20T09:17:46;21.40;;;14.35;;
22201;SDS011;11266;51.522;6.302;2022-08-20T09:18:32;17.75;;;13.38;;
22201;SDS011;11266;51.522;6.302;2022-08-20T09:19:18;19.40;;;13.27;;
22201;SDS011;11266;51.522;6.302;2022-08-20T09:20:04;18.52;;;13.43;;
22201;SDS011;11266;51.522;6.302;2022-08-20T09:20:51;24.05;;;15.20;;
22201;SDS011;11266;51.522;6.302;2022-08-20T09:21:37;19.90;;;13.85;;
22201;SDS011;11266;51.522;6.302;2022-08-20T09:22:23;23.75;;;14.32;;
22201;SDS011;11266;51.522;6.302;2022-08-20T09:23:09;18.13;;;12.60;;
22201;SDS011;11266;51.522;6.302;2022-08-20T09:23:55;21.85;;;14.73;;
22201;SDS011;11266;51.522;6.302;2022-08-20T09:24:42;21.05;;;14.68;;
22201;SDS011;11266;51.522;6.302;2022-08-20T09:25:28;17.08;;;13.10;;
22201;SDS011;11266;51.522;6.302;2022-08-20T09:26:14;18.48;;;13.38;;
22201;SDS011;11266;51.522;6.302;2022-08-20T09:27:00;15.30;;;12.55;;
22201;SDS011;11266;51.522;6.302;2022-08-20T09:27:48;20.92;;;14.15;;
22201;SDS011;11266;51.522;6.302;2022-08-20T09:28:34;17.85;;;13.52;;
22201;SDS011;11266;51.522;6.302;2022-08-20T09:29:22;19.45;;;12.98;;
22201;SDS011;11266;51.522;6.302;2022-08-20T09:30:09;21.02;;;14.00;;
22201;SDS011;11266;51.522;6.302;2022-08-20T09:30:55;20.95;;;13.85;;
22201;SDS011;11266;51.522;6.302;2022-08-20T09:31:46;21.45;;;15.65;;
22201;SDS011;11266;51.522;6.302;2022-08-20T09:32:32;16.80;;;13.60;;
22201;SDS011;11266;51.522;6.302;2022-08-20T09:33:20;17.98;;;13.18;;
22201;SDS011;11266;51.522;6.302;2022-08-20T09:34:06;19.33;;;14.13;;
22201;SDS011;11266;51.522;6.302;2022-08-20T09:34:53;19.70;;;14.18;;
22201;SDS011;11266;51.522;6.302;2022-08-20T09:35:40;17.58;;;14.93;;